createdAt,value
2019-06-07T00:01:08.419Z,11.85
2019-06-07T00:03:35.088Z,11.82
2019-06-07T00:06:03.175Z,11.74
2019-06-07T00:08:33.115Z,11.74
2019-06-07T00:11:00.821Z,11.67
2019-06-07T00:13:30.302Z,11.67
2019-06-07T00:15:57.818Z,11.63
2019-06-07T00:18:26.382Z,11.59
2019-06-07T00:20:53.863Z,11.57
2019-06-07T00:23:22.895Z,11.51
2019-06-07T00:25:50.990Z,11.51
2019-06-07T00:28:20.238Z,11.50
2019-06-07T00:30:51.933Z,11.48
2019-06-07T00:33:23.868Z,11.45
2019-06-07T00:35:48.444Z,11.42
2019-06-07T00:38:18.960Z,11.37
2019-06-07T00:40:45.406Z,11.30
2019-06-07T00:43:14.191Z,11.30
2019-06-07T00:45:42.315Z,11.24
2019-06-07T00:48:16.134Z,11.24
2019-06-07T00:50:39.106Z,11.20
2019-06-07T00:53:18.231Z,11.11
2019-06-07T00:55:38.945Z,11.04
2019-06-07T00:58:06.559Z,11.04
2019-06-07T01:00:34.206Z,10.89
2019-06-07T01:03:01.787Z,10.89
2019-06-07T01:05:31.551Z,10.75
2019-06-07T01:08:01.006Z,10.75
2019-06-07T01:10:51.719Z,10.71
2019-06-07T01:12:59.924Z,10.71
2019-06-07T01:15:29.261Z,10.70
2019-06-07T01:18:36.061Z,10.63
2019-06-07T01:20:26.781Z,10.63
2019-06-07T01:22:56.938Z,10.59
2019-06-07T01:25:26.388Z,10.59
2019-06-07T01:27:55.119Z,10.60
2019-06-07T01:30:24.596Z,10.57
2019-06-07T01:32:51.975Z,10.54
2019-06-07T01:35:20.604Z,10.52
2019-06-07T01:37:49.325Z,10.51
2019-06-07T01:40:17.774Z,10.46
2019-06-07T01:42:46.284Z,10.38
2019-06-07T01:45:14.561Z,10.38
2019-06-07T01:47:45.043Z,10.36
2019-06-07T01:50:12.700Z,10.34
2019-06-07T01:52:40.375Z,10.29
2019-06-07T01:55:08.430Z,10.24
2019-06-07T01:57:47.489Z,10.17
2019-06-07T02:00:05.494Z,10.14
2019-06-07T02:02:33.097Z,10.16
2019-06-07T02:05:01.158Z,10.16
2019-06-07T02:07:32.804Z,10.16
2019-06-07T02:09:58.355Z,10.16
2019-06-07T02:12:37.564Z,10.15
2019-06-07T02:14:55.692Z,10.15
2019-06-07T02:17:26.301Z,10.16
2019-06-07T02:19:52.636Z,10.15
2019-06-07T02:22:22.889Z,10.15
2019-06-07T02:25:33.451Z,10.15
2019-06-07T02:27:20.745Z,10.23
2019-06-07T02:29:48.493Z,10.23
2019-06-07T02:32:16.583Z,10.23
2019-06-07T02:34:44.226Z,10.22
2019-06-07T02:37:11.811Z,10.18
2019-06-07T02:39:41.001Z,10.09
2019-06-07T02:42:09.427Z,10.06
2019-06-07T02:44:40.668Z,10.04
2019-06-07T02:47:08.375Z,10.04
2019-06-07T02:49:40.872Z,9.95
2019-06-07T02:52:05.776Z,9.92
2019-06-07T02:54:38.978Z,9.92
2019-06-07T02:57:02.492Z,9.87
2019-06-07T02:59:57.165Z,9.83
2019-06-07T03:01:59.900Z,9.83
2019-06-07T03:04:29.534Z,9.81
2019-06-07T03:06:57.260Z,9.77
2019-06-07T03:09:26.366Z,9.76
2019-06-07T03:11:54.105Z,9.77
2019-06-07T03:14:22.076Z,9.77
2019-06-07T03:16:57.332Z,9.77
2019-06-07T03:19:37.312Z,9.77
2019-06-07T03:22:02.077Z,9.78
2019-06-07T03:24:33.139Z,9.79
2019-06-07T03:29:29.978Z,9.82
2019-06-07T03:31:58.029Z,9.82
2019-06-07T03:34:28.793Z,9.82
2019-06-07T03:36:55.660Z,9.82
2019-06-07T03:39:23.310Z,9.82
2019-06-07T03:42:05.645Z,9.81
2019-06-07T03:44:20.226Z,9.83
2019-06-07T03:46:47.721Z,9.88
2019-06-07T03:49:15.447Z,9.91
2019-06-07T03:51:43.415Z,9.91
2019-06-07T03:54:10.994Z,9.93
2019-06-07T03:56:40.960Z,9.93
2019-06-07T03:59:07.821Z,9.96
2019-06-07T04:01:37.667Z,10.01
2019-06-07T04:04:04.820Z,10.01
2019-06-07T04:06:34.418Z,10.05
2019-06-07T04:09:02.232Z,10.12
2019-06-07T04:11:30.057Z,10.20
2019-06-07T04:13:58.009Z,10.24
2019-06-07T04:16:25.668Z,10.37
2019-06-07T04:18:53.650Z,10.37
2019-06-07T04:21:21.330Z,10.44
2019-06-07T04:23:48.985Z,10.52
2019-06-07T04:26:16.729Z,10.63
2019-06-07T04:31:18.736Z,10.95
2019-06-07T04:33:46.390Z,11.15
2019-06-07T04:36:14.491Z,11.15
2019-06-07T04:38:42.748Z,11.20
2019-06-07T04:41:10.863Z,11.21
2019-06-07T04:43:41.089Z,11.25
2019-06-07T04:46:08.201Z,11.29
2019-06-07T04:48:40.175Z,11.29
2019-06-07T04:51:05.906Z,11.36
2019-06-07T04:53:35.326Z,11.42
2019-06-07T04:56:03.103Z,11.42
2019-06-07T04:58:31.482Z,11.53
2019-06-07T05:01:03.409Z,11.81
2019-06-07T05:03:37.049Z,11.97
2019-06-07T05:06:07.118Z,12.08
2019-06-07T05:08:36.157Z,12.08
2019-06-07T05:11:04.131Z,12.24
2019-06-07T05:13:36.725Z,12.44
2019-06-07T05:16:03.156Z,12.65
2019-06-07T05:18:33.689Z,12.85
2019-06-07T05:21:00.471Z,13.10
2019-06-07T05:24:02.614Z,13.54
2019-06-07T05:25:57.661Z,13.54
2019-06-07T05:28:25.282Z,13.97
2019-06-07T05:31:05.080Z,13.97
2019-06-07T05:33:27.199Z,14.07
2019-06-07T05:35:58.311Z,14.23
2019-06-07T05:38:26.096Z,14.23
2019-06-07T05:40:56.098Z,14.54
2019-06-07T05:43:23.717Z,14.73
2019-06-07T05:45:51.321Z,14.87
2019-06-07T05:48:18.836Z,14.99
2019-06-07T05:50:56.117Z,15.15
2019-06-07T05:53:16.807Z,15.15
2019-06-07T05:55:47.524Z,15.31
2019-06-07T05:58:14.129Z,15.52
2019-06-07T06:00:44.594Z,15.52
2019-06-07T06:03:11.039Z,15.60
2019-06-07T06:05:43.281Z,15.85
2019-06-07T06:08:08.848Z,15.99
2019-06-07T06:10:37.679Z,15.99
2019-06-07T06:13:08.737Z,16.11
2019-06-07T06:15:45.281Z,16.23
2019-06-07T06:18:07.216Z,16.39
2019-06-07T06:21:00.961Z,16.48
2019-06-07T06:23:04.753Z,16.55
2019-06-07T06:25:34.634Z,16.55
2019-06-07T06:28:10.927Z,16.75
2019-06-07T06:30:31.938Z,16.75
2019-06-07T06:32:59.539Z,16.89
2019-06-07T06:35:30.538Z,17.05
2019-06-07T06:38:05.286Z,17.22
2019-06-07T06:40:33.194Z,17.40
2019-06-07T06:43:03.152Z,17.54
2019-06-07T06:45:36.332Z,17.62
2019-06-07T06:48:04.145Z,17.66
2019-06-07T06:50:31.744Z,17.70
2019-06-07T06:52:59.320Z,17.81
2019-06-07T06:55:27.362Z,17.81
2019-06-07T06:57:57.880Z,17.96
2019-06-07T07:00:43.080Z,18.06
2019-06-07T07:05:26.745Z,18.25
2019-06-07T07:07:54.287Z,18.46
2019-06-07T07:10:22.174Z,18.46
2019-06-07T07:12:51.218Z,18.53
2019-06-07T07:15:18.986Z,18.65
2019-06-07T07:18:03.690Z,18.65
2019-06-07T07:20:19.915Z,18.96
2019-06-07T07:22:50.297Z,19.05
2019-06-07T07:25:17.397Z,19.09
2019-06-07T07:27:47.014Z,19.09
2019-06-07T07:30:36.066Z,19.04
2019-06-07T07:32:45.590Z,19.04
2019-06-07T07:35:13.019Z,19.03
2019-06-07T07:37:40.611Z,19.03
2019-06-07T07:40:55.305Z,19.10
2019-06-07T07:42:37.643Z,19.10
2019-06-07T07:45:05.130Z,19.04
2019-06-07T07:47:33.593Z,19.04
2019-06-07T07:50:01.117Z,19.04
2019-06-07T07:52:29.169Z,19.11
2019-06-07T07:54:58.379Z,19.11
2019-06-07T07:57:26.508Z,19.32
2019-06-07T08:00:25.219Z,19.32
2019-06-07T08:02:23.679Z,19.40
2019-06-07T08:05:16.574Z,19.48
2019-06-07T08:07:22.074Z,19.48
2019-06-07T08:09:51.447Z,19.58
2019-06-07T08:12:24.456Z,19.64
2019-06-07T08:14:57.451Z,19.69
2019-06-07T08:17:21.916Z,19.76
2019-06-07T08:19:51.607Z,19.91
2019-06-07T08:22:20.878Z,19.91
2019-06-07T08:24:50.441Z,20.02
2019-06-07T08:27:26.319Z,20.11
2019-06-07T08:30:06.446Z,20.11
2019-06-07T08:32:17.760Z,20.25
2019-06-07T08:34:45.414Z,20.35
2019-06-07T08:37:13.285Z,20.44
2019-06-07T08:39:40.905Z,20.56
2019-06-07T08:42:17.622Z,20.73
2019-06-07T08:44:43.797Z,20.73
2019-06-07T08:47:20.476Z,20.76
2019-06-07T08:49:42.387Z,20.83
2019-06-07T08:52:12.251Z,21.03
2019-06-07T08:54:39.709Z,21.03
2019-06-07T08:57:20.693Z,21.25
2019-06-07T08:59:37.917Z,21.25
2019-06-07T09:02:20.953Z,21.48
2019-06-07T09:04:34.932Z,21.48
2019-06-07T09:07:18.954Z,21.59
2019-06-07T09:09:39.072Z,21.62
2019-06-07T09:12:11.411Z,21.72
2019-06-07T09:14:57.551Z,21.84
2019-06-07T09:17:11.719Z,21.99
2019-06-07T09:19:38.229Z,22.20
2019-06-07T09:22:11.089Z,22.20
2019-06-07T09:24:38.992Z,22.34
2019-06-07T09:27:08.387Z,22.48
2019-06-07T09:29:36.241Z,22.62
2019-06-07T09:32:05.933Z,22.62
2019-06-07T09:34:33.546Z,22.73
2019-06-07T09:37:10.941Z,22.83
2019-06-07T09:39:34.362Z,22.92
2019-06-07T09:42:08.377Z,22.95
2019-06-07T09:44:31.519Z,23.27
2019-06-07T09:47:19.990Z,23.44
2019-06-07T09:49:32.891Z,23.44
2019-06-07T09:52:02.596Z,23.60
2019-06-07T09:55:03.150Z,23.91
2019-06-07T09:57:00.379Z,24.09
2019-06-07T09:59:28.242Z,24.09
2019-06-07T10:01:59.049Z,24.20
2019-06-07T10:04:31.226Z,24.62
2019-06-07T10:07:03.414Z,24.62
2019-06-07T10:10:08.980Z,24.89
2019-06-07T10:11:56.608Z,25.38
2019-06-07T10:14:24.161Z,25.38
2019-06-07T10:16:51.679Z,25.63
2019-06-07T10:19:19.597Z,26.25
2019-06-07T10:22:23.263Z,26.25
2019-06-07T10:24:25.222Z,26.94
2019-06-07T10:27:13.786Z,26.94
2019-06-07T10:29:41.739Z,27.29
2019-06-07T10:32:11.581Z,27.56
2019-06-07T10:34:39.282Z,27.90
2019-06-07T10:37:09.834Z,28.11
2019-06-07T10:39:48.040Z,28.40
2019-06-07T10:42:07.800Z,28.40
2019-06-07T10:44:37.321Z,28.60
2019-06-07T10:47:08.192Z,28.88
2019-06-07T10:49:38.756Z,29.14
2019-06-07T10:52:10.381Z,29.35
2019-06-07T10:54:38.316Z,29.64
2019-06-07T10:59:52.654Z,30.32
2019-06-07T11:02:21.849Z,30.57
2019-06-07T11:04:49.484Z,30.75
2019-06-07T11:07:20.393Z,30.97
2019-06-07T11:10:06.063Z,30.80
2019-06-07T11:12:22.448Z,30.77
2019-06-07T11:17:53.210Z,30.75
2019-06-07T11:18:21.042Z,30.73
2019-06-07T11:20:21.242Z,30.94
2019-06-07T11:22:51.064Z,30.94
2019-06-07T11:25:19.038Z,31.41
2019-06-07T11:27:47.025Z,31.87
2019-06-07T11:30:14.661Z,32.32
2019-06-07T11:32:42.199Z,32.32
2019-06-07T11:35:11.623Z,32.48
2019-06-07T11:37:40.352Z,32.65
2019-06-07T11:40:27.932Z,32.57
2019-06-07T11:45:28.843Z,32.99
2019-06-07T11:47:59.764Z,32.99
2019-06-07T11:50:26.136Z,33.31
2019-06-07T11:52:53.754Z,33.55
2019-06-07T11:55:23.699Z,33.38
2019-06-07T11:57:53.154Z,33.19
2019-06-07T12:00:21.122Z,33.33
2019-06-07T12:02:52.429Z,33.33
2019-06-07T12:05:22.934Z,33.43
2019-06-07T12:07:50.558Z,33.09
2019-06-07T12:10:22.699Z,33.21
2019-06-07T12:12:47.751Z,33.62
2019-06-07T12:15:15.329Z,33.95
2019-06-07T12:17:43.274Z,34.13
2019-06-07T12:20:15.286Z,34.71
2019-06-07T12:22:42.964Z,34.71
2019-06-07T12:25:19.711Z,35.05
2019-06-07T12:27:47.572Z,35.29
2019-06-07T12:30:26.028Z,34.96
2019-06-07T12:32:48.269Z,34.96
2019-06-07T12:35:15.950Z,34.99
2019-06-07T12:37:45.179Z,35.06
2019-06-07T12:40:25.510Z,35.17
2019-06-07T12:42:42.063Z,35.35
2019-06-07T12:45:10.176Z,35.43
2019-06-07T12:47:37.796Z,35.37
2019-06-07T12:50:06.588Z,35.11
2019-06-07T12:52:34.556Z,35.05
2019-06-07T12:55:03.241Z,35.22
2019-06-07T12:57:34.517Z,35.22
2019-06-07T13:00:02.949Z,35.52
2019-06-07T13:02:30.529Z,35.79
2019-06-07T13:04:58.031Z,35.50
2019-06-07T13:07:25.880Z,34.19
2019-06-07T13:09:53.494Z,32.71
2019-06-07T13:12:28.227Z,31.44
2019-06-07T13:15:02.182Z,30.94
2019-06-07T13:17:32.868Z,31.93
2019-06-07T13:20:00.390Z,31.93
2019-06-07T13:22:32.876Z,32.27
2019-06-07T13:25:00.091Z,32.27
2019-06-07T13:27:32.792Z,33.07
2019-06-07T13:29:58.573Z,33.70
2019-06-07T13:32:45.198Z,34.21
2019-06-07T13:35:05.693Z,34.21
2019-06-07T13:37:35.161Z,34.32
2019-06-07T13:40:02.693Z,34.75
2019-06-07T13:42:34.904Z,34.91
2019-06-07T13:44:59.885Z,34.94
2019-06-07T13:47:27.649Z,34.88
2019-06-07T13:49:55.566Z,34.05
2019-06-07T13:52:27.380Z,34.05
2019-06-07T13:55:01.192Z,32.83
2019-06-07T13:57:26.319Z,31.54
2019-06-07T13:59:58.245Z,30.52
2019-06-07T14:02:29.850Z,29.73
2019-06-07T14:05:05.801Z,29.11
2019-06-07T14:07:33.880Z,28.68
2019-06-07T14:10:01.502Z,28.34
2019-06-07T14:12:29.655Z,28.03
2019-06-07T14:14:59.823Z,27.73
2019-06-07T14:17:28.312Z,27.47
2019-06-07T14:19:56.586Z,27.31
2019-06-07T14:22:26.925Z,29.19
2019-06-07T14:24:54.515Z,29.19
2019-06-07T14:27:23.325Z,30.79
2019-06-07T14:29:52.976Z,32.11
2019-06-07T14:32:22.497Z,33.19
2019-06-07T14:34:51.843Z,33.97
2019-06-07T14:37:22.893Z,34.62
2019-06-07T14:39:50.395Z,35.01
2019-06-07T14:42:18.033Z,35.03
2019-06-07T14:44:46.023Z,35.10
2019-06-07T14:47:13.645Z,35.09
2019-06-07T14:49:41.256Z,35.08
2019-06-07T14:52:09.138Z,35.23
2019-06-07T14:54:39.281Z,35.17
2019-06-07T14:57:06.831Z,34.56
2019-06-07T14:59:38.698Z,33.45
2019-06-07T15:02:08.754Z,32.64
2019-06-07T15:04:36.351Z,32.08
2019-06-07T15:07:04.347Z,31.77
2019-06-07T15:09:33.018Z,31.37
2019-06-07T15:12:00.684Z,31.91
2019-06-07T15:14:29.342Z,32.73
2019-06-07T15:16:59.087Z,33.62
2019-06-07T15:19:26.801Z,34.66
2019-06-07T15:21:57.484Z,35.54
2019-06-07T15:24:25.064Z,36.05
2019-06-07T15:26:52.595Z,35.65
2019-06-07T15:29:24.755Z,34.52
2019-06-07T15:31:52.371Z,33.16
2019-06-07T15:34:22.741Z,32.07
2019-06-07T15:36:50.836Z,31.19
2019-06-07T15:39:18.528Z,30.36
2019-06-07T15:41:47.305Z,29.72
2019-06-07T15:44:15.255Z,29.16
2019-06-07T15:46:45.108Z,28.54
2019-06-07T15:49:12.647Z,27.95
2019-06-07T15:51:42.345Z,27.43
2019-06-07T15:54:10.272Z,27.07
2019-06-07T15:56:41.877Z,26.75
2019-06-07T15:59:09.126Z,26.51
2019-06-07T16:01:41.876Z,26.29
2019-06-07T16:04:07.988Z,26.08
2019-06-07T16:06:40.585Z,25.91
2019-06-07T16:09:11.575Z,25.76
2019-06-07T16:11:43.239Z,25.63
2019-06-07T16:14:10.774Z,25.51
2019-06-07T16:16:38.999Z,25.40
2019-06-07T16:19:12.339Z,25.33
2019-06-07T16:21:39.756Z,25.27
2019-06-07T16:24:07.542Z,25.19
2019-06-07T16:26:40.222Z,25.08
2019-06-07T16:29:04.317Z,24.96
2019-06-07T16:31:32.283Z,24.84
2019-06-07T16:34:05.041Z,24.76
2019-06-07T16:36:40.253Z,24.71
2019-06-07T16:39:08.452Z,24.65
2019-06-07T16:41:42.853Z,24.60
2019-06-07T16:44:13.698Z,24.53
2019-06-07T16:46:42.772Z,24.45
2019-06-07T16:49:12.452Z,24.31
2019-06-07T16:51:43.262Z,23.68
2019-06-07T16:54:11.199Z,22.83
2019-06-07T16:56:44.969Z,21.89
2019-06-07T16:59:08.306Z,20.22
2019-06-07T17:01:37.002Z,20.22
2019-06-07T17:04:07.838Z,19.79
2019-06-07T17:06:35.771Z,19.49
2019-06-07T17:09:03.318Z,19.36
2019-06-07T17:11:31.246Z,19.36
2019-06-07T17:14:01.574Z,19.49
2019-06-07T17:16:29.079Z,19.49
2019-06-07T17:18:57.064Z,19.53
2019-06-07T17:21:24.761Z,19.55
2019-06-07T17:23:52.361Z,19.52
2019-06-07T17:26:31.568Z,19.47
2019-06-07T17:29:00.261Z,19.27
2019-06-07T17:31:28.242Z,19.03
2019-06-07T17:33:58.676Z,18.80
2019-06-07T17:36:26.238Z,18.45
2019-06-07T17:38:56.096Z,18.45
2019-06-07T17:41:25.214Z,18.34
2019-06-07T17:44:00.040Z,18.30
2019-06-07T17:46:28.043Z,18.15
2019-06-07T17:48:55.550Z,17.83
2019-06-07T17:51:26.397Z,17.69
2019-06-07T17:53:56.348Z,17.69
2019-06-07T17:56:25.078Z,17.59
2019-06-07T17:58:53.040Z,17.49
2019-06-07T18:01:20.684Z,17.41
2019-06-07T18:03:49.369Z,17.35
2019-06-07T18:06:17.485Z,17.29
2019-06-07T18:08:45.509Z,17.24
2019-06-07T18:11:13.106Z,17.20
2019-06-07T18:13:42.207Z,17.17
2019-06-07T18:16:10.164Z,17.13
2019-06-07T18:18:39.799Z,17.12
2019-06-07T18:21:09.803Z,17.11
2019-06-07T18:23:37.373Z,17.07
2019-06-07T18:26:10.221Z,17.07
2019-06-07T18:28:41.895Z,17.08
2019-06-07T18:31:10.523Z,17.06
2019-06-07T18:33:40.320Z,17.08
2019-06-07T18:36:09.712Z,17.08
2019-06-07T18:38:39.198Z,17.06
2019-06-07T18:41:09.168Z,17.07
2019-06-07T18:43:37.183Z,17.09
2019-06-07T18:46:06.470Z,17.09
2019-06-07T18:48:37.148Z,17.12
2019-06-07T18:51:05.201Z,17.09
2019-06-07T18:53:36.824Z,17.05
2019-06-07T18:56:04.431Z,17.05
2019-06-07T18:58:40.857Z,17.08
2019-06-07T19:01:08.517Z,17.08
2019-06-07T19:03:37.141Z,17.11
2019-06-07T19:06:04.979Z,17.13
2019-06-07T19:08:32.537Z,17.14
2019-06-07T19:11:07.322Z,17.11
2019-06-07T19:13:35.235Z,17.11
2019-06-07T19:16:04.474Z,17.09
2019-06-07T19:18:34.712Z,17.10
2019-06-07T19:21:02.620Z,17.10
2019-06-07T19:23:32.751Z,17.10
2019-06-07T19:26:01.695Z,17.11
2019-06-07T19:28:29.968Z,17.15
2019-06-07T19:31:02.618Z,17.15
2019-06-07T19:33:32.547Z,17.14
2019-06-07T19:36:01.582Z,17.15
2019-06-07T19:38:29.393Z,17.16
2019-06-07T19:40:57.982Z,17.24
2019-06-07T19:43:30.294Z,17.29
2019-06-07T19:45:58.253Z,17.33
2019-06-07T19:48:27.926Z,17.33
2019-06-07T19:50:56.873Z,17.37
2019-06-07T19:53:27.522Z,17.38
2019-06-07T19:55:59.180Z,17.36
2019-06-07T19:58:28.020Z,17.29
2019-06-07T20:00:57.840Z,17.21
2019-06-07T20:03:28.236Z,17.21
2019-06-07T20:05:56.056Z,17.06
2019-06-07T20:08:23.955Z,17.06
2019-06-07T20:10:51.853Z,17.01
2019-06-07T20:13:21.210Z,17.01
2019-06-07T20:15:51.629Z,17.07
2019-06-07T20:18:21.234Z,17.11
2019-06-07T20:20:48.692Z,17.16
2019-06-07T20:23:19.716Z,17.22
2019-06-07T20:25:47.256Z,17.25
2019-06-07T20:28:15.092Z,17.25
2019-06-07T20:30:46.858Z,17.31
2019-06-07T20:33:16.125Z,17.31
2019-06-07T20:35:44.042Z,17.34
2019-06-07T20:38:11.608Z,17.35
2019-06-07T20:40:42.611Z,17.35
2019-06-07T20:43:10.613Z,17.37
2019-06-07T20:45:43.763Z,17.37
2019-06-07T20:48:11.325Z,17.39
2019-06-07T20:50:39.227Z,17.38
2019-06-07T20:53:09.267Z,17.37
2019-06-07T20:55:39.473Z,17.37
2019-06-07T20:58:07.432Z,17.30
2019-06-07T21:00:35.249Z,17.30
2019-06-07T21:03:07.412Z,17.23
2019-06-07T21:05:36.246Z,17.10
2019-06-07T21:08:04.791Z,17.10
2019-06-07T21:10:33.089Z,17.07
2019-06-07T21:13:03.855Z,17.02
2019-06-07T21:15:30.690Z,16.99
2019-06-07T21:17:58.363Z,16.95
2019-06-07T21:20:27.739Z,16.84
2019-06-07T21:22:55.720Z,16.76
2019-06-07T21:25:23.285Z,16.69
2019-06-07T21:27:52.692Z,16.69
2019-06-07T21:30:20.202Z,16.62
2019-06-07T21:32:48.128Z,16.60
2019-06-07T21:35:15.652Z,16.58
2019-06-07T21:37:43.386Z,16.57
2019-06-07T21:40:12.233Z,16.57
2019-06-07T21:42:40.206Z,16.57
2019-06-07T21:45:08.303Z,16.57
2019-06-07T21:47:37.119Z,16.58
2019-06-07T21:50:06.936Z,16.59
2019-06-07T21:52:34.889Z,16.59
2019-06-07T21:55:02.903Z,16.59
2019-06-07T21:57:33.126Z,16.60
2019-06-07T22:00:00.671Z,16.58
2019-06-07T22:02:37.759Z,16.61
2019-06-07T22:05:05.665Z,16.62
2019-06-07T22:07:33.394Z,16.64
2019-06-07T22:10:01.366Z,16.64
2019-06-07T22:12:29.030Z,16.64
2019-06-07T22:14:57.009Z,16.64
2019-06-07T22:17:25.075Z,16.67
2019-06-07T22:19:52.617Z,16.67
2019-06-07T22:22:20.381Z,16.67
2019-06-07T22:24:48.047Z,16.68
2019-06-07T22:27:21.092Z,16.68
2019-06-07T22:29:50.601Z,16.68
2019-06-07T22:32:21.376Z,16.68
2019-06-07T22:34:51.802Z,16.68
2019-06-07T22:37:23.631Z,16.68
2019-06-07T22:39:51.019Z,16.68
2019-06-07T22:42:21.339Z,16.68
2019-06-07T22:44:51.144Z,16.66
2019-06-07T22:47:18.703Z,16.66
2019-06-07T22:49:48.622Z,16.64
2019-06-07T22:52:20.345Z,16.60
2019-06-07T22:54:49.788Z,16.58
2019-06-07T22:57:22.011Z,16.58
2019-06-07T22:59:50.047Z,16.55
2019-06-07T23:02:18.829Z,16.53
2019-06-07T23:04:46.786Z,16.51
2019-06-07T23:07:14.949Z,16.52
2019-06-07T23:09:42.918Z,16.56
2019-06-07T23:12:11.095Z,16.56
2019-06-07T23:14:38.899Z,16.56
2019-06-07T23:17:09.468Z,16.53
2019-06-07T23:19:37.662Z,16.50
2019-06-07T23:22:05.125Z,16.48
2019-06-07T23:24:35.246Z,16.49
2019-06-07T23:27:03.523Z,16.48
2019-06-07T23:29:34.154Z,16.45
2019-06-07T23:32:02.214Z,16.43
2019-06-07T23:34:38.636Z,16.42
2019-06-07T23:37:06.346Z,16.42
2019-06-07T23:39:35.953Z,16.41
2019-06-07T23:42:03.457Z,16.42
2019-06-07T23:44:31.610Z,16.46
2019-06-07T23:47:10.723Z,16.44
2019-06-07T23:49:28.500Z,16.44
2019-06-07T23:51:56.220Z,16.39
2019-06-07T23:54:25.900Z,16.38
2019-06-07T23:56:57.835Z,16.29
2019-06-07T23:59:25.566Z,16.29
